Maldives Meteorological Service

SYNOP

Station Code SYNOP
43555
AAXX 22064 43555 12475 72708 10311 20244 30138 40140 60001 82279 333 58003 82818 87078=
43533
AAXX 22064 43533 12465 62706 10295 20236 30144 40146 60001 82242 333 58015 82818 84362=
43577
AAXX 22064 43577 12463 72503 10308 20254 30137 40139 60001 81238 333 59001 81818 87276=
43588
AAXX 22064 43588 12465 62704 10296 20244 30137 40138 60001 82232 333 58000 82818 85363=
43599
AAXX 22064 43599 12460 63603 10298 20247 30139 40141 60001 83231 333 58000 83817 84362=
Last Updated : 2018-10-22 11:01:37